createdAt,value
2018-08-04T00:02:20.819Z,40.20
2018-08-04T00:04:48.928Z,40.30
2018-08-04T00:07:17.018Z,40.30
2018-08-04T00:09:45.124Z,40.40
2018-08-04T00:12:13.232Z,40.40
2018-08-04T00:14:41.316Z,40.60
2018-08-04T00:17:09.429Z,40.50
2018-08-04T00:19:37.590Z,40.50
2018-08-04T00:22:05.715Z,40.60
2018-08-04T00:24:33.794Z,40.60
2018-08-04T00:27:01.878Z,40.70
2018-08-04T00:29:29.964Z,40.70
2018-08-04T00:31:58.032Z,40.70
2018-08-04T00:34:26.332Z,40.70
2018-08-04T00:36:54.527Z,40.70
2018-08-04T00:39:22.626Z,40.80
2018-08-04T00:41:50.736Z,40.80
2018-08-04T00:44:18.852Z,40.80
2018-08-04T00:46:46.963Z,40.80
2018-08-04T00:49:15.048Z,40.90
2018-08-04T00:51:43.153Z,41.00
2018-08-04T00:56:39.180Z,41.00
2018-08-04T00:59:07.339Z,41.00
2018-08-04T01:01:35.424Z,41.00
2018-08-04T01:04:03.590Z,41.00
2018-08-04T01:06:31.733Z,41.10
2018-08-04T01:08:59.833Z,41.00
2018-08-04T01:11:27.920Z,41.00
2018-08-04T01:13:56.052Z,40.70
2018-08-04T01:16:24.143Z,41.60
2018-08-04T01:18:52.268Z,41.10
2018-08-04T01:21:20.392Z,41.10
2018-08-04T01:23:48.512Z,41.10
2018-08-04T01:26:16.664Z,41.10
2018-08-04T01:28:44.899Z,41.20
2018-08-04T01:31:13.082Z,41.20
2018-08-04T01:33:41.180Z,41.20
2018-08-04T01:36:09.337Z,41.20
2018-08-04T01:38:37.488Z,41.20
2018-08-04T01:41:05.661Z,41.20
2018-08-04T01:43:33.836Z,41.20
2018-08-04T01:46:01.932Z,41.20
2018-08-04T01:48:30.065Z,41.70
2018-08-04T01:50:58.165Z,41.40
2018-08-04T01:53:26.248Z,41.30
2018-08-04T01:55:54.376Z,41.40
2018-08-04T01:58:22.466Z,41.30
2018-08-04T02:00:50.565Z,41.30
2018-08-04T02:03:18.667Z,41.30
2018-08-04T02:05:46.778Z,41.30
2018-08-04T02:08:14.868Z,41.40
2018-08-04T02:10:42.954Z,41.30
2018-08-04T02:13:11.233Z,41.40
2018-08-04T02:15:39.412Z,41.40
2018-08-04T02:18:07.583Z,41.40
2018-08-04T02:20:35.716Z,41.40
2018-08-04T02:23:03.812Z,41.40
2018-08-04T02:28:00.003Z,41.50
2018-08-04T02:30:28.113Z,41.50
2018-08-04T02:32:56.215Z,41.40
2018-08-04T02:35:24.302Z,41.40
2018-08-04T02:37:52.398Z,41.40
2018-08-04T02:40:20.532Z,41.50
2018-08-04T02:42:48.637Z,41.50
2018-08-04T02:45:16.744Z,41.40
2018-08-04T02:47:44.840Z,41.50
2018-08-04T02:50:13.001Z,41.90
2018-08-04T02:52:41.185Z,41.50
2018-08-04T02:55:09.457Z,41.50
2018-08-04T02:57:37.631Z,41.60
2018-08-04T03:00:05.978Z,41.60
2018-08-04T03:02:34.077Z,41.50
2018-08-04T03:05:02.343Z,41.50
2018-08-04T03:07:30.437Z,41.50
2018-08-04T03:09:58.504Z,41.50
2018-08-04T03:12:26.689Z,41.50
2018-08-04T03:14:54.769Z,41.50
2018-08-04T03:17:22.962Z,41.60
2018-08-04T03:19:51.083Z,41.50
2018-08-04T03:22:19.208Z,41.50
2018-08-04T03:24:47.322Z,41.50
2018-08-04T03:27:15.396Z,41.50
2018-08-04T03:29:43.569Z,41.60
2018-08-04T03:32:11.717Z,41.60
2018-08-04T03:37:07.758Z,41.60
2018-08-04T03:39:35.993Z,41.60
2018-08-04T03:42:04.103Z,41.70
2018-08-04T03:44:32.444Z,41.70
2018-08-04T03:47:00.632Z,41.70
2018-08-04T03:49:28.694Z,41.70
2018-08-04T03:51:56.784Z,41.80
2018-08-04T03:54:24.855Z,41.70
2018-08-04T03:56:52.956Z,41.70
2018-08-04T03:59:21.048Z,41.70
2018-08-04T04:01:49.121Z,42.00
2018-08-04T04:06:45.213Z,41.50
2018-08-04T04:09:13.311Z,41.80
2018-08-04T04:11:41.411Z,41.70
2018-08-04T04:14:09.550Z,41.70
2018-08-04T04:16:37.654Z,41.80
2018-08-04T04:19:05.789Z,41.80
2018-08-04T04:21:34.056Z,41.80
2018-08-04T04:24:02.151Z,41.80
2018-08-04T04:26:30.232Z,41.80
2018-08-04T04:28:58.320Z,41.70
2018-08-04T04:31:26.413Z,41.70
2018-08-04T04:33:54.562Z,41.70
2018-08-04T04:36:22.662Z,41.70
2018-08-04T04:38:50.752Z,41.80
2018-08-04T04:41:18.904Z,41.80
2018-08-04T04:43:47.008Z,41.80
2018-08-04T04:46:15.335Z,41.80
2018-08-04T04:48:43.424Z,41.80
2018-08-04T04:51:11.576Z,41.80
2018-08-04T04:53:39.716Z,41.80
2018-08-04T04:56:07.842Z,41.80
2018-08-04T04:58:35.949Z,42.60
2018-08-04T05:01:04.048Z,41.70
2018-08-04T05:03:32.260Z,41.80
2018-08-04T05:06:00.340Z,41.80
2018-08-04T05:08:28.428Z,41.90
2018-08-04T05:10:56.565Z,41.60
2018-08-04T05:13:24.754Z,41.80
2018-08-04T05:15:52.872Z,41.80
2018-08-04T05:18:21.000Z,41.80
2018-08-04T05:20:49.162Z,41.80
2018-08-04T05:23:17.335Z,41.80
2018-08-04T05:25:45.569Z,41.90
2018-08-04T05:28:13.696Z,41.80
2018-08-04T05:30:41.857Z,41.80
2018-08-04T05:33:09.984Z,41.80
2018-08-04T05:35:38.140Z,41.80
2018-08-04T05:38:06.316Z,41.90
2018-08-04T05:40:34.401Z,41.90
2018-08-04T05:43:02.499Z,41.80
2018-08-04T05:45:30.649Z,42.00
2018-08-04T05:47:58.750Z,41.90
2018-08-04T05:50:26.820Z,42.00
2018-08-04T05:52:55.000Z,42.00
2018-08-04T05:57:51.121Z,42.00
2018-08-04T06:00:19.285Z,42.10
2018-08-04T06:02:47.341Z,42.00
2018-08-04T06:05:15.464Z,42.10
2018-08-04T06:07:43.552Z,42.00
2018-08-04T06:10:11.737Z,42.00
2018-08-04T06:12:39.930Z,42.00
2018-08-04T06:15:08.104Z,41.90
2018-08-04T06:17:36.276Z,42.00
2018-08-04T06:20:05.194Z,42.10
2018-08-04T06:22:33.269Z,42.10
2018-08-04T06:25:01.443Z,42.10
2018-08-04T06:27:29.512Z,42.10
2018-08-04T06:29:57.634Z,42.20
2018-08-04T06:32:25.730Z,42.20
2018-08-04T06:34:53.933Z,42.40
2018-08-04T06:37:22.072Z,42.30
2018-08-04T06:39:50.208Z,42.30
2018-08-04T06:42:18.352Z,42.40
2018-08-04T06:44:46.447Z,42.90
2018-08-04T06:47:14.606Z,42.40
2018-08-04T06:49:42.775Z,42.50
2018-08-04T06:54:38.963Z,42.50
2018-08-04T06:57:07.137Z,42.50
2018-08-04T06:59:35.270Z,42.50
2018-08-04T07:02:03.364Z,42.60
2018-08-04T07:04:31.492Z,42.60
2018-08-04T07:06:59.595Z,42.60
2018-08-04T07:09:27.736Z,42.60
2018-08-04T07:11:55.858Z,42.60
2018-08-04T07:14:23.952Z,42.60
2018-08-04T07:16:52.036Z,42.60
2018-08-04T07:19:20.208Z,42.60
2018-08-04T07:21:48.395Z,42.60
2018-08-04T07:24:16.460Z,42.70
2018-08-04T07:26:44.624Z,42.70
2018-08-04T07:29:12.777Z,42.70
2018-08-04T07:31:40.859Z,42.60
2018-08-04T07:34:09.153Z,42.60
2018-08-04T07:36:37.308Z,42.70
2018-08-04T07:39:07.322Z,42.70
2018-08-04T07:41:35.734Z,42.60
2018-08-04T07:44:04.372Z,42.70
2018-08-04T07:46:32.472Z,42.70
2018-08-04T07:49:00.587Z,42.70
2018-08-04T07:51:28.708Z,42.70
2018-08-04T07:53:56.804Z,42.70
2018-08-04T07:56:24.913Z,42.70
2018-08-04T07:58:53.026Z,42.90
2018-08-04T08:01:21.116Z,42.80
2018-08-04T08:03:49.224Z,42.70
2018-08-04T08:06:17.317Z,42.80
2018-08-04T08:08:45.447Z,43.00
2018-08-04T08:11:13.690Z,42.70
2018-08-04T08:13:41.752Z,42.80
2018-08-04T08:16:09.926Z,42.60
2018-08-04T08:21:06.037Z,43.40
2018-08-04T08:23:34.118Z,42.80
2018-08-04T08:26:10.282Z,43.00
2018-08-04T08:28:39.129Z,42.80
2018-08-04T08:31:07.486Z,43.00
2018-08-04T08:33:35.944Z,43.00
2018-08-04T08:36:04.503Z,43.40
2018-08-04T08:38:32.632Z,43.70
2018-08-04T08:41:01.104Z,43.50
2018-08-04T08:43:29.476Z,43.80
2018-08-04T08:45:57.892Z,44.00
2018-08-04T08:48:26.018Z,44.00
2018-08-04T08:50:54.208Z,43.80
2018-08-04T08:53:22.828Z,44.00
2018-08-04T08:55:50.816Z,44.00
2018-08-04T08:58:18.928Z,43.80
2018-08-04T09:00:47.057Z,44.10
2018-08-04T09:03:15.181Z,44.30
2018-08-04T09:05:43.373Z,44.40
2018-08-04T09:08:11.576Z,44.90
2018-08-04T09:10:39.772Z,44.50
2018-08-04T09:13:07.937Z,44.20
2018-08-04T09:15:36.184Z,44.60
2018-08-04T09:18:04.234Z,44.40
2018-08-04T09:20:32.427Z,44.30
2018-08-04T09:23:00.712Z,45.00
2018-08-04T09:25:28.921Z,45.00
2018-08-04T09:27:57.078Z,46.00
2018-08-04T09:30:25.258Z,45.80
2018-08-04T09:32:53.385Z,45.50
2018-08-04T09:35:21.475Z,45.60
2018-08-04T09:37:49.698Z,45.50
2018-08-04T09:40:17.776Z,45.40
2018-08-04T09:42:46.205Z,45.50
2018-08-04T09:45:14.485Z,45.40
2018-08-04T09:47:42.795Z,45.20
2018-08-04T09:52:40.328Z,45.70
2018-08-04T09:55:09.302Z,45.60
2018-08-04T09:57:37.406Z,45.50
2018-08-04T10:00:08.499Z,45.60
2018-08-04T10:02:36.639Z,45.60
2018-08-04T10:05:05.074Z,45.80
2018-08-04T10:07:33.140Z,45.70
2018-08-04T10:10:01.345Z,45.60
2018-08-04T10:12:29.481Z,45.60
2018-08-04T10:14:57.641Z,45.60
2018-08-04T10:17:25.800Z,45.60
2018-08-04T10:19:53.901Z,45.40
2018-08-04T10:22:22.012Z,45.50
2018-08-04T10:24:50.249Z,45.20
2018-08-04T10:27:18.334Z,45.40
2018-08-04T10:29:46.427Z,45.50
2018-08-04T10:32:14.764Z,45.60
2018-08-04T10:34:42.731Z,45.60
2018-08-04T10:37:10.885Z,45.20
2018-08-04T10:39:39.013Z,45.20
2018-08-04T10:42:07.390Z,44.70
2018-08-04T10:44:35.600Z,44.90
2018-08-04T10:47:03.679Z,45.00
2018-08-04T10:49:31.802Z,45.10
2018-08-04T10:51:59.913Z,44.70
2018-08-04T10:54:27.985Z,45.00
2018-08-04T10:56:56.120Z,45.20
2018-08-04T10:59:24.164Z,44.90
2018-08-04T11:04:20.271Z,44.80
2018-08-04T11:06:48.380Z,45.10
2018-08-04T11:09:16.539Z,44.80
2018-08-04T11:11:44.708Z,45.30
2018-08-04T11:14:13.000Z,45.20
2018-08-04T11:16:41.168Z,45.00
2018-08-04T11:19:09.316Z,45.00
2018-08-04T11:21:37.452Z,45.50
2018-08-04T11:24:05.682Z,44.90
2018-08-04T11:26:33.740Z,44.80
2018-08-04T11:29:01.845Z,45.50
2018-08-04T11:31:30.014Z,44.60
2018-08-04T11:36:26.037Z,44.60
2018-08-04T11:38:54.234Z,45.00
2018-08-04T11:41:22.344Z,45.50
2018-08-04T11:43:50.508Z,45.80
2018-08-04T11:46:18.605Z,45.90
2018-08-04T11:48:46.784Z,46.20
2018-08-04T11:51:14.995Z,45.90
2018-08-04T11:53:43.241Z,46.90
2018-08-04T11:58:39.396Z,46.80
2018-08-04T12:01:07.556Z,45.70
2018-08-04T12:03:35.789Z,45.20
2018-08-04T12:06:03.933Z,45.20
2018-08-04T12:08:32.224Z,45.30
2018-08-04T12:11:00.366Z,44.90
2018-08-04T12:13:28.473Z,45.60
2018-08-04T12:15:56.621Z,45.00
2018-08-04T12:18:24.725Z,45.10
2018-08-04T12:23:20.872Z,44.90
2018-08-04T12:25:49.064Z,44.60
2018-08-04T12:28:17.164Z,44.60
2018-08-04T12:30:45.319Z,44.60
2018-08-04T12:33:13.473Z,44.80
2018-08-04T12:35:41.664Z,44.50
2018-08-04T12:38:09.778Z,44.50
2018-08-04T12:40:37.953Z,44.40
2018-08-04T12:43:06.139Z,44.50
2018-08-04T12:45:34.348Z,44.20
2018-08-04T12:48:02.384Z,44.20
2018-08-04T12:50:30.520Z,44.30
2018-08-04T12:52:58.629Z,44.60
2018-08-04T12:57:54.848Z,44.70
2018-08-04T13:00:23.016Z,44.60
2018-08-04T13:02:51.238Z,44.40
2018-08-04T13:05:19.360Z,44.50
2018-08-04T13:10:15.513Z,44.30
2018-08-04T13:12:43.944Z,44.50
2018-08-04T13:15:12.079Z,44.80
2018-08-04T13:17:40.441Z,43.20
2018-08-04T13:20:08.593Z,42.70
2018-08-04T13:22:36.763Z,43.20
2018-08-04T13:25:05.163Z,43.40
2018-08-04T13:27:33.270Z,43.60
2018-08-04T13:30:01.392Z,43.00
2018-08-04T13:32:29.692Z,42.80
2018-08-04T13:34:57.859Z,42.70
2018-08-04T13:37:26.041Z,42.50
2018-08-04T13:39:54.380Z,42.10
2018-08-04T13:42:22.582Z,42.40
2018-08-04T13:44:50.704Z,41.80
2018-08-04T13:47:18.831Z,42.80
2018-08-04T13:49:46.947Z,42.80
2018-08-04T13:52:15.097Z,43.40
2018-08-04T13:57:11.296Z,42.60
2018-08-04T13:59:39.500Z,42.30
2018-08-04T14:02:07.673Z,43.20
2018-08-04T14:04:35.786Z,42.30
2018-08-04T14:07:03.965Z,42.00
2018-08-04T14:09:32.094Z,41.70
2018-08-04T14:12:00.185Z,42.00
2018-08-04T14:14:28.289Z,41.60
2018-08-04T14:16:56.409Z,41.30
2018-08-04T14:19:24.480Z,41.00
2018-08-04T14:21:52.673Z,41.20
2018-08-04T14:24:20.837Z,41.30
2018-08-04T14:26:49.073Z,41.10
2018-08-04T14:29:17.198Z,41.00
2018-08-04T14:31:45.350Z,40.90
2018-08-04T14:34:13.665Z,41.00
2018-08-04T14:36:41.865Z,41.10
2018-08-04T14:39:11.760Z,40.90
2018-08-04T14:41:39.907Z,40.80
2018-08-04T14:44:08.134Z,40.60
2018-08-04T14:46:36.396Z,40.40
2018-08-04T14:49:04.729Z,40.60
2018-08-04T14:51:32.865Z,40.50
2018-08-04T14:54:01.434Z,40.40
2018-08-04T14:56:29.556Z,40.20
2018-08-04T14:58:57.789Z,40.60
2018-08-04T15:01:25.928Z,40.10
2018-08-04T15:03:54.004Z,40.30
2018-08-04T15:06:22.163Z,40.20
2018-08-04T15:08:50.288Z,40.00
2018-08-04T15:11:18.389Z,40.90
2018-08-04T15:13:46.520Z,41.20
2018-08-04T15:16:14.776Z,41.30
2018-08-04T15:18:43.061Z,41.30
2018-08-04T15:23:39.465Z,41.60
2018-08-04T15:26:07.637Z,41.20
2018-08-04T15:28:35.780Z,41.40
2018-08-04T15:31:03.909Z,42.00
2018-08-04T15:33:31.992Z,41.50
2018-08-04T15:36:00.093Z,41.60
2018-08-04T15:38:28.203Z,41.30
2018-08-04T15:40:56.336Z,41.50
2018-08-04T15:43:24.443Z,41.50
2018-08-04T15:45:52.584Z,41.60
2018-08-04T15:48:20.708Z,41.80
2018-08-04T15:50:48.916Z,42.00
2018-08-04T15:53:17.056Z,42.00
2018-08-04T15:55:45.317Z,41.90
2018-08-04T15:58:13.724Z,41.80
2018-08-04T16:00:41.893Z,41.80
2018-08-04T16:03:10.150Z,41.90
2018-08-04T16:05:38.288Z,41.80
2018-08-04T16:08:06.563Z,41.80
2018-08-04T16:10:34.677Z,41.70
2018-08-04T16:13:02.740Z,41.90
2018-08-04T16:15:30.812Z,42.10
2018-08-04T16:17:58.892Z,41.80
2018-08-04T16:20:26.987Z,41.90
2018-08-04T16:22:56.119Z,41.90
2018-08-04T16:25:24.183Z,41.90
2018-08-04T16:27:52.292Z,41.90
2018-08-04T16:30:20.428Z,42.00
2018-08-04T16:32:48.536Z,42.00
2018-08-04T16:35:16.637Z,42.00
2018-08-04T16:37:44.768Z,42.00
2018-08-04T16:40:12.892Z,42.00
2018-08-04T16:42:41.155Z,42.00
2018-08-04T16:45:09.339Z,42.00
2018-08-04T16:47:37.590Z,42.00
2018-08-04T16:50:05.744Z,42.00
2018-08-04T16:52:33.881Z,42.00
2018-08-04T16:55:02.029Z,42.00
2018-08-04T16:57:30.131Z,42.00
2018-08-04T17:02:26.225Z,42.10
2018-08-04T17:04:54.330Z,42.10
2018-08-04T17:07:22.444Z,42.10
2018-08-04T17:09:50.687Z,42.20
2018-08-04T17:12:18.794Z,42.20
2018-08-04T17:14:46.864Z,42.20
2018-08-04T17:17:14.976Z,42.20
2018-08-04T17:19:43.080Z,42.20
2018-08-04T17:22:11.344Z,42.30
2018-08-04T17:24:39.452Z,42.40
2018-08-04T17:27:07.640Z,42.40
2018-08-04T17:29:35.770Z,42.40
2018-08-04T17:32:03.852Z,42.40
2018-08-04T17:34:31.934Z,42.40
2018-08-04T17:37:00.090Z,42.50
2018-08-04T17:39:28.181Z,42.50
2018-08-04T17:44:24.238Z,42.60
2018-08-04T17:46:52.329Z,42.60
2018-08-04T17:49:20.455Z,42.60
2018-08-04T17:51:48.565Z,42.60
2018-08-04T17:54:16.732Z,42.60
2018-08-04T17:56:44.898Z,42.60
2018-08-04T17:59:13.096Z,42.60
2018-08-04T18:01:41.272Z,42.60
2018-08-04T18:04:09.397Z,42.70
2018-08-04T18:06:37.562Z,42.80
2018-08-04T18:09:08.228Z,42.80
2018-08-04T18:11:36.657Z,42.80
2018-08-04T18:14:04.885Z,42.80
2018-08-04T18:16:32.981Z,42.30
2018-08-04T18:19:01.177Z,43.00
2018-08-04T18:21:29.260Z,43.00
2018-08-04T18:26:25.572Z,43.20
2018-08-04T18:28:53.672Z,43.10
2018-08-04T18:31:21.772Z,43.20
2018-08-04T18:33:49.993Z,43.20
2018-08-04T18:36:18.129Z,43.10
2018-08-04T18:38:46.262Z,43.10
2018-08-04T18:41:14.823Z,43.20
2018-08-04T18:43:43.072Z,43.30
2018-08-04T18:46:11.213Z,43.20
2018-08-04T18:48:39.389Z,43.20
2018-08-04T18:51:07.669Z,43.20
2018-08-04T18:53:35.811Z,43.20
2018-08-04T18:56:04.014Z,43.10
2018-08-04T18:58:32.132Z,43.30
2018-08-04T19:01:00.218Z,43.20
2018-08-04T19:03:28.307Z,43.30
2018-08-04T19:05:56.464Z,43.30
2018-08-04T19:08:24.929Z,43.40
2018-08-04T19:10:53.360Z,43.30
2018-08-04T19:13:21.608Z,43.40
2018-08-04T19:15:49.741Z,43.50
2018-08-04T19:18:17.845Z,43.50
2018-08-04T19:20:46.043Z,43.40
2018-08-04T19:23:14.599Z,43.50
2018-08-04T19:25:43.431Z,43.50
2018-08-04T19:28:11.571Z,43.50
2018-08-04T19:30:39.796Z,43.50
2018-08-04T19:33:07.933Z,43.60
2018-08-04T19:35:36.025Z,43.60
2018-08-04T19:38:04.258Z,43.60
2018-08-04T19:40:32.356Z,43.60
2018-08-04T19:43:00.515Z,43.60
2018-08-04T19:45:28.650Z,43.60
2018-08-04T19:47:56.761Z,43.60
2018-08-04T19:50:24.872Z,43.60
2018-08-04T19:52:52.995Z,43.70
2018-08-04T19:55:21.172Z,43.70
2018-08-04T19:57:49.269Z,43.60
2018-08-04T20:00:17.432Z,43.60
2018-08-04T20:02:45.589Z,43.60
2018-08-04T20:05:13.797Z,43.50
2018-08-04T20:07:41.974Z,43.80
2018-08-04T20:10:10.169Z,43.80
2018-08-04T20:12:38.343Z,43.90
2018-08-04T20:15:06.475Z,44.00
2018-08-04T20:17:34.581Z,44.00
2018-08-04T20:20:02.739Z,44.00
2018-08-04T20:22:30.812Z,44.00
2018-08-04T20:24:58.909Z,43.90
2018-08-04T20:27:27.040Z,44.00
2018-08-04T20:29:55.184Z,44.10
2018-08-04T20:32:23.274Z,44.20
2018-08-04T20:34:51.380Z,44.10
2018-08-04T20:37:19.497Z,44.30
2018-08-04T20:39:47.588Z,44.20
2018-08-04T20:42:15.795Z,44.10
2018-08-04T20:44:43.988Z,44.20
2018-08-04T20:47:12.040Z,44.10
2018-08-04T20:49:40.181Z,44.20
2018-08-04T20:52:08.481Z,44.10
2018-08-04T20:54:36.662Z,44.20
2018-08-04T20:57:04.750Z,44.10
2018-08-04T20:59:32.889Z,44.10
2018-08-04T21:02:02.620Z,44.00
2018-08-04T21:04:31.952Z,44.10
2018-08-04T21:07:00.676Z,44.10
2018-08-04T21:09:28.796Z,44.00
2018-08-04T21:11:57.187Z,44.00
2018-08-04T21:14:26.449Z,44.00
2018-08-04T21:16:55.449Z,44.00
2018-08-04T21:19:24.144Z,44.00
2018-08-04T21:21:52.396Z,44.00
2018-08-04T21:24:21.757Z,43.90
2018-08-04T21:26:50.957Z,43.90
2018-08-04T21:29:19.071Z,44.00
2018-08-04T21:31:47.184Z,43.90
2018-08-04T21:34:15.334Z,43.80
2018-08-04T21:36:44.148Z,44.00
2018-08-04T21:39:13.540Z,43.90
2018-08-04T21:41:42.548Z,44.00
2018-08-04T21:44:10.696Z,44.00
2018-08-04T21:46:48.411Z,44.00
2018-08-04T21:49:16.682Z,44.30
2018-08-04T21:51:46.968Z,44.00
2018-08-04T21:54:19.916Z,44.00
2018-08-04T21:56:44.629Z,44.00
2018-08-04T21:59:12.810Z,44.00
2018-08-04T22:01:46.474Z,44.00
2018-08-04T22:04:14.527Z,44.00
2018-08-04T22:07:57.500Z,44.00
2018-08-04T22:10:25.724Z,44.10
2018-08-04T22:12:53.986Z,44.10
2018-08-04T22:15:22.100Z,44.00
2018-08-04T22:17:50.234Z,44.00
2018-08-04T22:20:19.556Z,44.00
2018-08-04T22:22:47.820Z,44.60
2018-08-04T22:25:18.197Z,44.10
2018-08-04T22:27:46.431Z,44.00
2018-08-04T22:30:15.995Z,44.80
2018-08-04T22:32:44.736Z,44.10
2018-08-04T22:37:41.279Z,44.20
2018-08-04T22:40:10.480Z,44.20
2018-08-04T22:42:38.860Z,44.20
2018-08-04T22:45:53.792Z,44.30
2018-08-04T22:48:22.578Z,44.20
2018-08-04T22:50:50.704Z,44.20
2018-08-04T22:53:19.056Z,44.10
2018-08-04T22:55:47.227Z,44.10
2018-08-04T22:58:15.368Z,44.00
2018-08-04T23:00:44.316Z,44.00
2018-08-04T23:03:13.176Z,44.00
2018-08-04T23:05:41.368Z,44.00
2018-08-04T23:08:10.353Z,44.10
2018-08-04T23:10:39.107Z,44.10
2018-08-04T23:13:07.823Z,44.10
2018-08-04T23:15:35.978Z,44.00
2018-08-04T23:18:04.102Z,44.00
2018-08-04T23:20:32.176Z,43.90
2018-08-04T23:23:00.563Z,44.00
2018-08-04T23:25:28.697Z,44.00
2018-08-04T23:27:56.841Z,43.90
2018-08-04T23:30:24.964Z,43.90
2018-08-04T23:32:53.611Z,43.90
2018-08-04T23:35:23.016Z,43.90
2018-08-04T23:37:51.103Z,43.80
2018-08-04T23:40:19.515Z,43.90
2018-08-04T23:42:47.632Z,43.80
2018-08-04T23:45:15.797Z,43.80
2018-08-04T23:47:44.200Z,43.90
2018-08-04T23:50:12.388Z,44.40
2018-08-04T23:52:40.687Z,43.90
2018-08-04T23:55:08.941Z,43.90
2018-08-04T23:57:37.079Z,43.90
